Time;durP1;ratioP1;P1;durP2;ratioP2;P2;SDS_P1;SDS_P2;PMS_P1;PMS_P2;Temp;Humidity;BMP_temperature;BMP_pressure;BME280_temperature;BME280_humidity;BME280_pressure;Samples;Min_cycle;Max_cycle;Signal;HPM_P1;HPM_P2
2022/01/30 00:02:12;;;;;;;35.13;7.35;;;6.20;99.90;;;;;;6126553;23;20393;-78
2022/01/30 00:04:37;;;;;;;24.50;5.32;;;6.10;99.90;;;;;;6126759;23;20025;-78
2022/01/30 00:07:19;;;;;;;29.58;5.25;;;6.00;99.90;;;;;;6126638;23;20084;-77
2022/01/30 00:09:48;;;;;;;29.73;4.80;;;5.90;99.90;;;;;;6078189;23;20037;-76
2022/01/30 00:12:17;;;;;;;24.77;7.13;;;5.90;99.90;;;;;;6102297;23;20489;-77
2022/01/30 00:14:43;;;;;;;34.40;7.70;;;6.00;99.90;;;;;;6151567;23;20028;-77
2022/01/30 00:19:41;;;;;;;36.65;7.78;;;6.00;99.90;;;;;;6126024;23;20026;-77
2022/01/30 00:22:42;;;;;;;34.95;5.95;;;6.00;99.90;;;;;;6126685;23;20028;-76
2022/01/30 00:25:03;;;;;;;31.65;5.43;;;6.00;99.90;;;;;;6153215;23;20084;-77
2022/01/30 00:27:44;;;;;;;27.83;6.40;;;6.00;99.90;;;;;;6130501;23;20021;-78
2022/01/30 00:30:13;;;;;;;38.67;8.18;;;6.00;99.90;;;;;;6131631;23;20491;-78
2022/01/30 00:32:39;;;;;;;37.42;7.07;;;6.00;99.90;;;;;;6156348;23;20025;-79
2022/01/30 00:35:06;;;;;;;40.38;8.07;;;6.00;99.90;;;;;;6153868;23;20461;-79
2022/01/30 00:37:32;;;;;;;46.42;10.40;;;6.10;99.90;;;;;;6126933;23;20056;-78
2022/01/30 00:39:57;;;;;;;44.40;7.47;;;6.00;99.90;;;;;;6127837;23;20030;-78
2022/01/30 00:42:24;;;;;;;56.05;9.05;;;6.10;99.90;;;;;;6152791;23;20026;-77
2022/01/30 00:44:49;;;;;;;48.00;8.63;;;6.10;99.90;;;;;;6174529;23;20483;-77
2022/01/30 00:47:15;;;;;;;50.92;11.05;;;6.10;99.90;;;;;;6159083;23;20028;-77
2022/01/30 00:49:41;;;;;;;43.42;9.05;;;6.10;99.90;;;;;;6158854;23;20025;-78
2022/01/30 00:52:10;;;;;;;44.22;8.55;;;6.10;99.90;;;;;;6185947;23;20052;-78
2022/01/30 00:54:43;;;;;;;53.92;9.95;;;6.10;99.90;;;;;;6159130;23;20021;-79
2022/01/30 00:57:09;;;;;;;42.60;9.65;;;6.10;99.90;;;;;;6134412;23;20021;-78
2022/01/30 00:59:36;;;;;;;68.57;12.60;;;6.20;99.90;;;;;;6185713;23;20025;-79
2022/01/30 01:02:02;;;;;;;40.35;8.02;;;6.20;99.90;;;;;;6158953;23;20071;-77
2022/01/30 01:04:29;;;;;;;41.92;7.75;;;6.20;99.90;;;;;;6159209;23;20539;-77
2022/01/30 01:06:55;;;;;;;37.25;8.15;;;6.30;99.90;;;;;;6134351;23;20161;-78
2022/01/30 01:09:25;;;;;;;50.00;8.05;;;6.40;99.90;;;;;;6158940;23;20056;-77
2022/01/30 01:12:11;;;;;;;50.08;7.63;;;6.40;99.90;;;;;;6112012;23;20017;-78
2022/01/30 01:25:38;;;;;;;41.05;6.85;;;5.90;99.90;;;;;;6078263;23;20540;-78
2022/01/30 01:28:04;;;;;;;41.38;9.40;;;5.90;99.90;;;;;;6074297;23;20157;-78
2022/01/30 01:30:29;;;;;;;43.25;7.85;;;6.00;99.90;;;;;;6098828;23;20433;-77
2022/01/30 01:32:55;;;;;;;45.95;8.00;;;6.00;99.90;;;;;;6122553;23;20022;-77
2022/01/30 01:35:21;;;;;;;40.65;7.55;;;6.00;99.90;;;;;;6098920;23;20081;-79
2022/01/30 01:37:52;;;;;;;45.00;10.52;;;6.10;99.90;;;;;;6123341;23;20362;-77
2022/01/30 01:40:18;;;;;;;43.30;9.48;;;6.10;99.90;;;;;;6098828;23;20033;-78
2022/01/30 01:42:44;;;;;;;46.85;9.45;;;6.20;99.90;;;;;;6123025;23;20026;-78
2022/01/30 01:45:17;;;;;;;63.40;11.95;;;6.30;99.90;;;;;;6045797;23;20026;-79
2022/01/30 01:47:43;;;;;;;39.65;9.73;;;6.30;99.90;;;;;;6044728;23;20526;-77
2022/01/30 01:50:17;;;;;;;54.08;9.95;;;6.40;99.90;;;;;;6096783;23;20029;-78
2022/01/30 01:52:48;;;;;;;57.50;11.05;;;6.50;99.90;;;;;;6126193;23;20022;-77
2022/01/30 01:55:22;;;;;;;45.70;8.88;;;6.50;99.90;;;;;;6123913;23;20026;-78
2022/01/30 01:57:49;;;;;;;46.60;9.80;;;6.50;99.90;;;;;;6100005;23;20022;-78
2022/01/30 02:00:19;;;;;;;41.42;7.28;;;6.40;99.90;;;;;;6100660;23;20438;-78
2022/01/30 02:02:45;;;;;;;28.25;6.65;;;6.20;99.90;;;;;;6076171;23;20032;-76
2022/01/30 02:05:11;;;;;;;30.90;7.07;;;6.10;99.90;;;;;;6100122;23;20022;-77
2022/01/30 02:08:23;;;;;;;37.90;7.78;;;6.10;99.90;;;;;;6124654;23;20077;-78
2022/01/30 02:10:57;;;;;;;44.53;9.48;;;6.00;99.90;;;;;;6129595;23;20401;-77
2022/01/30 02:27:11;;;;;;;55.65;9.15;;;6.00;99.90;;;;;;6124047;23;20053;-78
2022/01/30 02:29:37;;;;;;;46.67;10.55;;;6.00;99.90;;;;;;6052719;23;20100;-77
2022/01/30 02:32:14;;;;;;;60.80;12.43;;;6.00;99.90;;;;;;6099534;23;20525;-79
2022/01/30 02:34:40;;;;;;;40.88;9.90;;;6.10;99.90;;;;;;6099614;23;20056;-79
2022/01/30 02:37:06;;;;;;;55.58;10.40;;;6.10;99.90;;;;;;6124025;23;20022;-79
2022/01/30 02:39:35;;;;;;;52.13;8.98;;;6.10;99.90;;;;;;6099447;23;20026;-78
2022/01/30 02:42:01;;;;;;;45.65;8.30;;;6.10;99.90;;;;;;6123126;23;20101;-78
2022/01/30 02:46:56;;;;;;;42.95;9.35;;;6.10;99.90;;;;;;6149055;23;20061;-78
2022/01/30 02:51:59;;;;;;;52.28;12.35;;;6.20;99.90;;;;;;6153171;23;20027;-79
2022/01/30 02:54:32;;;;;;;38.33;7.90;;;6.30;99.90;;;;;;6110893;23;20037;-78
2022/01/30 02:56:58;;;;;;;52.05;10.45;;;6.30;99.90;;;;;;6153565;23;20354;-78
2022/01/30 02:59:27;;;;;;;43.95;8.20;;;6.30;99.90;;;;;;6154266;23;20017;-78
2022/01/30 03:01:58;;;;;;;39.67;9.55;;;6.40;99.90;;;;;;6108230;23;20346;-78
2022/01/30 03:04:24;;;;;;;47.00;10.40;;;6.40;99.90;;;;;;6127787;23;20100;-77
2022/01/30 03:06:56;;;;;;;51.75;9.77;;;6.50;99.90;;;;;;6128059;23;20492;-78
2022/01/30 03:09:22;;;;;;;57.80;10.45;;;6.50;99.90;;;;;;6127672;23;20401;-77
2022/01/30 03:11:48;;;;;;;45.08;8.85;;;6.50;99.90;;;;;;6128476;23;20037;-77
2022/01/30 03:14:14;;;;;;;60.85;11.32;;;6.50;99.90;;;;;;6155043;23;20025;-78
2022/01/30 03:16:40;;;;;;;62.42;10.90;;;6.50;99.90;;;;;;6153296;23;20017;-79
2022/01/30 03:19:06;;;;;;;49.15;9.80;;;6.50;99.90;;;;;;6153117;23;20033;-79
2022/01/30 03:21:33;;;;;;;46.67;8.90;;;6.60;99.90;;;;;;6153190;23;20021;-79
2022/01/30 03:23:58;;;;;;;50.47;11.90;;;6.60;99.90;;;;;;6128484;23;20025;-78
2022/01/30 03:26:27;;;;;;;64.90;12.15;;;6.50;99.90;;;;;;6104509;23;20021;-76
2022/01/30 03:28:56;;;;;;;50.42;9.27;;;6.60;99.90;;;;;;6128280;23;20025;-78
2022/01/30 03:31:22;;;;;;;37.53;8.70;;;6.60;99.90;;;;;;6152835;23;20087;-79
2022/01/30 03:33:48;;;;;;;50.67;9.70;;;6.60;99.90;;;;;;6152730;23;20060;-78
2022/01/30 03:36:14;;;;;;;40.05;9.32;;;6.60;99.90;;;;;;6154144;23;20026;-79
2022/01/30 03:38:40;;;;;;;41.90;11.05;;;6.70;99.90;;;;;;6152792;23;20484;-78
2022/01/30 03:41:07;;;;;;;45.97;8.82;;;6.70;99.90;;;;;;6152910;23;20122;-79
2022/01/30 03:43:34;;;;;;;36.78;7.65;;;6.60;99.90;;;;;;6157472;23;20084;-78
2022/01/30 03:46:04;;;;;;;46.03;10.45;;;6.30;99.90;;;;;;6136228;23;20025;-80
2022/01/30 03:48:29;;;;;;;54.95;9.98;;;6.30;99.90;;;;;;6157737;23;20072;-80
2022/01/30 03:50:55;;;;;;;47.25;9.93;;;6.20;99.90;;;;;;6133259;23;20453;-78
2022/01/30 03:53:21;;;;;;;58.17;11.40;;;6.20;99.90;;;;;;6157744;23;20025;-79
2022/01/30 03:55:47;;;;;;;56.55;10.75;;;6.30;99.90;;;;;;6157703;23;20021;-80
2022/01/30 03:58:19;;;;;;;59.55;13.90;;;6.30;99.90;;;;;;6184358;23;20025;-78
2022/01/30 04:00:45;;;;;;;61.90;13.43;;;6.30;99.90;;;;;;6153114;23;20083;-79
2022/01/30 04:03:12;;;;;;;58.40;12.20;;;6.20;99.90;;;;;;6133507;23;20025;-79
2022/01/30 04:05:38;;;;;;;62.17;14.70;;;6.20;99.90;;;;;;6133152;23;20028;-79
2022/01/30 04:08:05;;;;;;;58.28;14.30;;;6.20;99.90;;;;;;6182071;23;20538;-79
2022/01/30 04:10:32;;;;;;;59.22;13.15;;;6.20;99.90;;;;;;6157537;23;20357;-79
2022/01/30 04:12:58;;;;;;;65.85;15.07;;;6.30;99.90;;;;;;6157674;23;20040;-78
2022/01/30 04:15:24;;;;;;;56.35;12.50;;;6.20;99.90;;;;;;6157180;23;20024;-80
2022/01/30 04:17:51;;;;;;;48.60;10.70;;;6.30;99.90;;;;;;6134040;23;20100;-79
2022/01/30 04:20:17;;;;;;;42.53;8.85;;;6.30;99.90;;;;;;6186013;23;20024;-78
2022/01/30 04:22:43;;;;;;;43.28;9.50;;;6.40;99.90;;;;;;6159414;23;20103;-78
2022/01/30 04:25:19;;;;;;;44.22;9.55;;;6.40;99.90;;;;;;6137188;23;20060;-79
2022/01/30 04:27:52;;;;;;;40.45;8.77;;;6.40;99.90;;;;;;6136710;23;20400;-79
2022/01/30 04:30:18;;;;;;;48.00;10.13;;;6.40;99.90;;;;;;6137488;23;20392;-80
2022/01/30 04:32:47;;;;;;;53.33;12.20;;;6.40;99.90;;;;;;6187045;23;20017;-79
2022/01/30 04:35:22;;;;;;;55.78;11.40;;;6.40;99.90;;;;;;6159288;23;20036;-79
2022/01/30 05:02:58;;;;;;;44.50;11.20;;;6.30;99.90;;;;;;6159055;23;20095;-79
2022/01/30 05:07:47;;;;;;;46.20;11.10;;;6.30;99.90;;;;;;6159546;23;20068;-78
2022/01/30 05:10:13;;;;;;;58.30;12.27;;;6.20;99.90;;;;;;6159394;23;20044;-79
2022/01/30 05:12:49;;;;;;;57.20;12.63;;;6.20;99.90;;;;;;6159534;23;20352;-79
2022/01/30 05:15:18;;;;;;;61.22;12.35;;;6.20;99.90;;;;;;6182874;23;20129;-77
2022/01/30 05:17:46;;;;;;;59.88;11.43;;;6.30;99.90;;;;;;6136062;23;20060;-79
2022/01/30 05:20:14;;;;;;;63.90;13.50;;;6.30;99.90;;;;;;6089365;23;20111;-81
2022/01/30 05:22:44;;;;;;;75.18;15.65;;;6.30;99.90;;;;;;6114372;23;20024;-80
2022/01/30 05:25:30;;;;;;;61.35;10.68;;;6.40;99.90;;;;;;6136171;23;20087;-80
2022/01/30 05:27:56;;;;;;;63.58;12.85;;;6.40;99.90;;;;;;6134834;23;20024;-79
2022/01/30 05:30:22;;;;;;;62.28;13.07;;;6.40;99.90;;;;;;6133803;23;20427;-79
2022/01/30 05:32:48;;;;;;;47.40;10.52;;;6.40;99.90;;;;;;6133888;23;20025;-80
2022/01/30 05:35:15;;;;;;;54.50;11.57;;;6.40;99.90;;;;;;6159000;23;20445;-79
2022/01/30 05:37:42;;;;;;;54.63;10.82;;;6.40;99.90;;;;;;6132644;23;20031;-79
2022/01/30 05:40:11;;;;;;;72.97;14.02;;;6.40;99.90;;;;;;6158323;23;20025;-78
2022/01/30 05:42:42;;;;;;;53.67;13.68;;;6.40;99.90;;;;;;6158794;23;20025;-78
2022/01/30 05:45:26;;;;;;;64.18;12.40;;;6.40;99.90;;;;;;6103691;23;20022;-78
2022/01/30 05:48:25;;;;;;;53.15;11.05;;;6.40;99.90;;;;;;6129302;23;20025;-78
2022/01/30 05:50:45;;;;;;;75.57;12.52;;;6.40;99.90;;;;;;6128177;23;20018;-78
2022/01/30 05:53:14;;;;;;;67.50;13.07;;;6.30;99.90;;;;;;6154235;23;20028;-77
2022/01/30 05:55:39;;;;;;;72.63;13.65;;;6.30;99.90;;;;;;6153927;23;20365;-78
2022/01/30 05:58:24;;;;;;;;;;;6.40;99.90;;;;;;6156220;23;20358;-78
2022/01/30 06:01:22;;;;;;;62.38;11.32;;;6.30;99.90;;;;;;6154635;23;19917;-79
2022/01/30 06:04:09;;;;;;;57.78;11.70;;;6.30;99.90;;;;;;6103362;23;20025;-79
2022/01/30 06:06:47;;;;;;;45.72;11.90;;;6.30;99.90;;;;;;6130482;23;20439;-78
2022/01/30 06:09:19;;;;;;;43.88;9.60;;;6.30;99.90;;;;;;6089350;23;20094;-78
2022/01/30 06:11:49;;;;;;;49.83;10.75;;;6.30;99.90;;;;;;6103546;23;20031;-78
2022/01/30 06:14:16;;;;;;;57.88;10.65;;;6.30;99.90;;;;;;6127662;23;20415;-78
2022/01/30 06:16:53;;;;;;;53.67;11.45;;;6.30;99.90;;;;;;6127459;23;20025;-78
2022/01/30 06:19:43;;;;;;;48.40;9.35;;;6.20;99.90;;;;;;6127509;23;20026;-78
2022/01/30 06:22:08;;;;;;;58.35;10.25;;;6.30;99.90;;;;;;6079334;23;20354;-78
2022/01/30 06:24:42;;;;;;;54.80;11.23;;;6.30;99.90;;;;;;6103268;23;20021;-77
2022/01/30 06:27:09;;;;;;;49.20;11.77;;;6.30;99.90;;;;;;6103285;23;20125;-79
2022/01/30 06:29:34;;;;;;;58.65;13.77;;;6.30;99.90;;;;;;6103157;23;20031;-78
2022/01/30 06:32:00;;;;;;;63.40;13.05;;;6.40;99.90;;;;;;6127774;23;20017;-78
2022/01/30 06:34:28;;;;;;;65.88;14.10;;;6.40;99.90;;;;;;6133880;23;20076;-77
2022/01/30 06:36:55;;;;;;;69.32;13.95;;;6.40;99.90;;;;;;6152924;23;20013;-77
2022/01/30 06:39:21;;;;;;;68.97;14.07;;;6.40;99.90;;;;;;6153827;23;20025;-78
2022/01/30 06:41:47;;;;;;;59.92;13.73;;;6.40;99.90;;;;;;6153550;23;20018;-78
2022/01/30 06:44:13;;;;;;;55.28;12.25;;;6.40;99.90;;;;;;6156003;23;20420;-77
2022/01/30 06:46:39;;;;;;;60.95;12.93;;;6.40;99.90;;;;;;6158177;23;20391;-79
2022/01/30 06:49:05;;;;;;;59.83;11.27;;;6.40;99.90;;;;;;6184458;23;20510;-79
2022/01/30 06:51:31;;;;;;;55.75;11.68;;;6.40;99.90;;;;;;6157974;23;20348;-78
2022/01/30 06:53:58;;;;;;;57.72;10.70;;;6.30;99.90;;;;;;6157977;23;20036;-79
2022/01/30 06:56:23;;;;;;;47.25;10.95;;;6.40;99.90;;;;;;6133824;23;20090;-79
2022/01/30 06:58:52;;;;;;;45.20;8.27;;;6.30;99.90;;;;;;6185381;23;20104;-78
2022/01/30 07:01:18;;;;;;;47.20;10.65;;;6.30;99.90;;;;;;6158336;23;20397;-78
2022/01/30 07:03:44;;;;;;;43.92;9.88;;;6.20;99.90;;;;;;6188511;23;20075;-82
2022/01/30 07:06:11;;;;;;;46.05;9.40;;;6.20;99.90;;;;;;6164781;23;20059;-79
2022/01/30 07:08:44;;;;;;;40.05;8.52;;;6.10;99.90;;;;;;6162405;23;20369;-81
2022/01/30 07:11:12;;;;;;;45.45;9.60;;;6.10;99.90;;;;;;6160067;23;20024;-79
2022/01/30 07:13:40;;;;;;;53.22;11.93;;;6.10;99.90;;;;;;6158440;23;20103;-79
2022/01/30 07:16:15;;;;;;;43.20;9.65;;;6.10;99.90;;;;;;6134758;23;20021;-78
2022/01/30 07:18:41;;;;;;;54.00;8.70;;;6.20;99.90;;;;;;6184284;23;20349;-80
2022/01/30 07:21:09;;;;;;;43.58;9.75;;;6.20;99.90;;;;;;6157818;23;20032;-78
2022/01/30 07:23:36;;;;;;;39.47;8.50;;;6.20;99.90;;;;;;6158187;23;20464;-78
2022/01/30 07:26:03;;;;;;;53.30;8.32;;;6.10;99.90;;;;;;6109676;23;20036;-79
2022/01/30 07:28:29;;;;;;;42.67;9.18;;;6.10;99.90;;;;;;6158191;23;20029;-79
2022/01/30 07:30:55;;;;;;;45.83;9.23;;;6.10;99.70;;;;;;6133053;23;20025;-79
2022/01/30 07:33:21;;;;;;;47.40;9.07;;;6.10;99.90;;;;;;6184449;23;20028;-79
2022/01/30 07:35:49;;;;;;;50.50;8.95;;;6.00;99.90;;;;;;6158004;23;20028;-79
2022/01/30 07:38:16;;;;;;;39.53;9.75;;;6.10;99.90;;;;;;6157721;23;20419;-79
2022/01/30 07:40:43;;;;;;;51.90;10.15;;;6.10;99.90;;;;;;6133418;23;20087;-78
2022/01/30 07:43:10;;;;;;;54.20;10.18;;;6.10;99.90;;;;;;6157799;23;20028;-78
2022/01/30 07:45:40;;;;;;;48.08;8.77;;;6.10;99.90;;;;;;6133340;23;20021;-79
2022/01/30 07:48:15;;;;;;;52.78;12.07;;;6.10;99.90;;;;;;6157815;23;20356;-79
2022/01/30 07:50:42;;;;;;;42.08;12.23;;;6.10;99.90;;;;;;6108985;23;20348;-78
2022/01/30 07:53:11;;;;;;;49.83;12.25;;;6.10;99.90;;;;;;6112865;23;20021;-78
2022/01/30 07:55:37;;;;;;;48.20;12.07;;;6.00;99.90;;;;;;6188245;23;20123;-80
2022/01/30 07:58:03;;;;;;;52.28;10.40;;;6.10;99.90;;;;;;6161462;23;20079;-77
2022/01/30 08:00:30;;;;;;;48.47;8.80;;;6.10;99.90;;;;;;6157605;23;20021;-78
2022/01/30 08:03:04;;;;;;;33.50;8.77;;;6.10;99.90;;;;;;6132569;23;20018;-79
2022/01/30 08:05:30;;;;;;;58.90;11.55;;;6.00;99.90;;;;;;6109685;23;20036;-79
2022/01/30 08:07:56;;;;;;;49.45;9.32;;;5.90;99.90;;;;;;6182352;23;20021;-79
2022/01/30 08:10:22;;;;;;;52.47;10.82;;;6.00;99.90;;;;;;6157141;23;20166;-78
2022/01/30 08:12:48;;;;;;;46.40;9.50;;;6.00;99.90;;;;;;6157742;23;20028;-78
2022/01/30 08:15:14;;;;;;;46.90;9.50;;;6.00;99.90;;;;;;6157928;23;20560;-79
2022/01/30 08:17:39;;;;;;;46.10;11.77;;;6.10;99.90;;;;;;6158034;23;20025;-79
2022/01/30 08:20:09;;;;;;;53.05;10.93;;;6.10;99.90;;;;;;6155091;23;20017;-78
2022/01/30 08:22:54;;;;;;;44.58;8.98;;;6.10;99.90;;;;;;6157715;23;20536;-77
2022/01/30 08:25:20;;;;;;;;;;;6.20;99.90;;;;;;6158500;23;20140;-79
2022/01/30 08:27:47;;;;;;;44.63;9.77;;;6.20;99.90;;;;;;6157366;23;19916;-79
2022/01/30 08:30:13;;;;;;;62.22;11.43;;;6.20;99.90;;;;;;6184027;23;20531;-79
2022/01/30 08:32:50;;;;;;;53.90;9.98;;;6.20;99.90;;;;;;6132343;23;20353;-79
2022/01/30 08:35:17;;;;;;;46.47;10.52;;;6.20;99.90;;;;;;6132663;23;20410;-78
2022/01/30 08:37:43;;;;;;;46.65;9.52;;;6.20;99.90;;;;;;6109094;23;20029;-79
2022/01/30 08:40:17;;;;;;;53.72;9.52;;;6.20;99.90;;;;;;6184040;23;20083;-78
2022/01/30 08:42:46;;;;;;;49.53;10.05;;;6.30;99.90;;;;;;6156705;23;20018;-78
2022/01/30 08:45:14;;;;;;;48.47;10.20;;;6.40;99.90;;;;;;6129977;23;20033;-80
2022/01/30 08:47:47;;;;;;;53.08;10.75;;;6.40;99.90;;;;;;6157095;23;20075;-80
2022/01/30 08:50:15;;;;;;;50.45;10.57;;;6.40;99.90;;;;;;6154635;23;20033;-80
2022/01/30 08:52:42;;;;;;;58.33;11.60;;;6.30;99.90;;;;;;6127119;23;20029;-80
2022/01/30 08:55:10;;;;;;;42.78;8.95;;;6.30;99.90;;;;;;6152353;23;20134;-79
2022/01/30 08:57:38;;;;;;;56.78;11.02;;;6.40;99.90;;;;;;6127687;23;20029;-79
2022/01/30 09:00:10;;;;;;;47.67;10.20;;;6.50;99.90;;;;;;6149554;23;20436;-80
2022/01/30 09:02:37;;;;;;;44.63;9.40;;;6.70;99.90;;;;;;6202906;23;20024;-80
2022/01/30 09:05:08;;;;;;;39.72;10.45;;;6.80;99.90;;;;;;6153281;23;20030;-79
2022/01/30 09:07:34;;;;;;;47.83;9.75;;;6.80;99.90;;;;;;6129182;23;20024;-78
2022/01/30 09:10:03;;;;;;;47.92;8.45;;;6.70;99.90;;;;;;6153528;23;20408;-79
2022/01/30 09:12:29;;;;;;;56.72;9.25;;;6.70;99.90;;;;;;6130754;23;20029;-79
2022/01/30 09:14:55;;;;;;;42.10;8.88;;;6.70;99.90;;;;;;6154743;23;20029;-78
2022/01/30 09:17:24;;;;;;;37.75;8.80;;;6.70;99.60;;;;;;6154398;23;20035;-79
2022/01/30 09:19:50;;;;;;;45.22;9.40;;;6.70;99.30;;;;;;6154312;23;20100;-78
2022/01/30 09:22:18;;;;;;;49.97;9.40;;;6.80;99.90;;;;;;6154169;23;20060;-79
2022/01/30 09:24:44;;;;;;;50.47;8.02;;;6.80;99.90;;;;;;6128918;23;20462;-78
2022/01/30 09:27:20;;;;;;;46.28;8.45;;;6.90;99.90;;;;;;6105455;23;20029;-78
2022/01/30 09:30:06;;;;;;;44.70;8.65;;;6.80;99.20;;;;;;6129866;23;20112;-80
2022/01/30 09:32:33;;;;;;;51.20;10.05;;;6.80;98.40;;;;;;6132113;23;20029;-80
2022/01/30 09:34:59;;;;;;;40.58;7.78;;;6.80;99.40;;;;;;6134390;23;20053;-80
2022/01/30 09:37:25;;;;;;;37.22;9.00;;;6.90;99.00;;;;;;6158736;23;20138;-79
2022/01/30 09:39:50;;;;;;;35.53;9.40;;;7.00;99.30;;;;;;6153494;23;20084;-79
2022/01/30 09:42:16;;;;;;;50.15;8.80;;;7.10;99.40;;;;;;6155878;23;20025;-80
2022/01/30 09:44:43;;;;;;;58.90;9.75;;;7.40;99.50;;;;;;6154311;23;20029;-79
2022/01/30 09:47:14;;;;;;;60.47;10.73;;;7.60;99.70;;;;;;6154385;23;20024;-80
2022/01/30 09:49:46;;;;;;;46.38;9.77;;;7.60;99.90;;;;;;6153498;23;20051;-80
2022/01/30 09:52:15;;;;;;;57.42;10.82;;;7.60;99.90;;;;;;6129484;23;20024;-80
2022/01/30 09:54:43;;;;;;;57.10;11.13;;;7.50;99.90;;;;;;6153858;23;20022;-80
2022/01/30 09:57:09;;;;;;;44.10;9.57;;;7.30;99.90;;;;;;6104841;23;20096;-80
2022/01/30 09:59:35;;;;;;;44.30;9.00;;;7.20;99.90;;;;;;6203334;23;20053;-78
2022/01/30 10:02:05;;;;;;;44.08;8.13;;;7.10;99.90;;;;;;6153806;23;20022;-78
2022/01/30 10:04:31;;;;;;;58.17;11.68;;;7.10;99.90;;;;;;6129206;23;20462;-79
2022/01/30 10:07:03;;;;;;;44.63;10.13;;;7.00;99.90;;;;;;6153899;23;20025;-79
2022/01/30 10:09:33;;;;;;;48.38;11.57;;;6.90;99.90;;;;;;6153372;23;20033;-79
2022/01/30 10:12:16;;;;;;;42.05;8.15;;;7.10;99.80;;;;;;6130015;23;20029;-80
2022/01/30 10:14:58;;;;;;;42.53;9.20;;;7.40;99.20;;;;;;6152977;23;20053;-79
2022/01/30 10:17:26;;;;;;;46.13;8.45;;;7.50;98.70;;;;;;6128993;23;20025;-79
2022/01/30 10:20:16;;;;;;;53.63;9.10;;;7.50;99.00;;;;;;6154638;23;20377;-80
2022/01/30 10:22:53;;;;;;;40.55;9.00;;;7.50;99.30;;;;;;6124373;23;20052;-79
2022/01/30 10:25:46;;;;;;;40.05;9.80;;;7.50;99.00;;;;;;6155747;23;20049;-80
2022/01/30 10:28:27;;;;;;;43.60;7.33;;;7.40;98.10;;;;;;6073677;23;20077;-78
2022/01/30 10:31:10;;;;;;;42.33;9.32;;;7.60;97.80;;;;;;6098010;23;20044;-79
2022/01/30 10:33:51;;;;;;;43.13;9.70;;;7.80;97.40;;;;;;6097047;23;20054;-79
2022/01/30 10:36:25;;;;;;;45.17;9.30;;;8.10;96.70;;;;;;6094311;23;20027;-78
2022/01/30 10:39:04;;;;;;;49.17;9.73;;;8.30;97.00;;;;;;6093733;23;20506;-79
2022/01/30 10:41:57;;;;;;;41.95;8.43;;;8.50;96.40;;;;;;6093331;23;20049;-79
2022/01/30 10:44:25;;;;;;;40.92;10.55;;;8.60;96.60;;;;;;6093383;23;20065;-78
2022/01/30 10:46:54;;;;;;;40.50;8.77;;;8.30;97.40;;;;;;6093240;23;20022;-79
2022/01/30 10:49:22;;;;;;;48.03;9.32;;;8.40;97.90;;;;;;6021876;23;20069;-79
2022/01/30 10:52:24;;;;;;;48.67;8.48;;;8.70;97.60;;;;;;6021709;23;20022;-79
2022/01/30 10:54:50;;;;;;;41.90;9.88;;;8.90;96.80;;;;;;6040265;23;20386;-79
2022/01/30 10:57:16;;;;;;;37.53;8.38;;;9.00;96.20;;;;;;6040493;23;20449;-78
2022/01/30 10:59:45;;;;;;;43.05;8.23;;;9.00;95.40;;;;;;6101232;23;20034;-79
2022/01/30 11:02:11;;;;;;;42.30;9.05;;;9.00;94.90;;;;;;6102551;23;20018;-78
2022/01/30 11:04:38;;;;;;;40.90;9.75;;;9.00;95.20;;;;;;6127305;23;20022;-79
2022/01/30 11:07:07;;;;;;;60.33;9.50;;;9.20;96.00;;;;;;6127007;23;20033;-79
2022/01/30 11:09:47;;;;;;;53.40;12.15;;;9.70;95.90;;;;;;6127293;23;20030;-79
2022/01/30 11:12:15;;;;;;;47.45;9.55;;;9.90;94.90;;;;;;6123377;23;20033;-79
2022/01/30 11:17:17;;;;;;;41.53;10.93;;;10.00;92.70;;;;;;6127635;23;20334;-78
2022/01/30 11:19:44;;;;;;;36.45;8.63;;;10.10;92.50;;;;;;6152026;23;20061;-79
2022/01/30 11:22:12;;;;;;;48.03;8.45;;;10.00;91.70;;;;;;6127289;23;20595;-78
2022/01/30 11:24:48;;;;;;;43.28;8.13;;;10.10;92.10;;;;;;6127005;23;20100;-79
2022/01/30 11:27:34;;;;;;;48.90;10.50;;;10.30;92.10;;;;;;6126482;23;20476;-78
2022/01/30 11:30:01;;;;;;;37.20;9.00;;;10.70;90.80;;;;;;6102952;23;20029;-79
2022/01/30 11:32:28;;;;;;;42.30;8.70;;;11.10;90.40;;;;;;6126749;23;20498;-79
2022/01/30 11:34:57;;;;;;;40.17;9.90;;;11.60;88.30;;;;;;6078721;23;20048;-80
2022/01/30 11:37:29;;;;;;;42.15;7.88;;;11.70;83.20;;;;;;6101962;23;20025;-79
2022/01/30 11:40:10;;;;;;;49.22;12.05;;;11.10;83.50;;;;;;6102976;23;20072;-78
2022/01/30 11:42:40;;;;;;;46.25;8.70;;;10.60;89.30;;;;;;6079388;23;20049;-78
2022/01/30 11:45:11;;;;;;;41.28;8.98;;;9.80;90.40;;;;;;6126357;23;20033;-79
2022/01/30 11:48:14;;;;;;;38.97;8.73;;;9.30;91.50;;;;;;6152942;23;20044;-78
2022/01/30 11:50:41;;;;;;;40.30;9.82;;;8.90;92.40;;;;;;6103347;23;20028;-78
2022/01/30 11:53:09;;;;;;;50.97;8.23;;;8.70;93.30;;;;;;6152533;23;20126;-79
2022/01/30 11:56:02;;;;;;;36.05;9.68;;;8.70;93.80;;;;;;6152991;23;20025;-78
2022/01/30 11:58:38;;;;;;;47.80;7.93;;;9.50;94.10;;;;;;6140297;23;20018;-79
2022/01/30 12:01:26;;;;;;;42.55;8.27;;;10.40;91.30;;;;;;6154538;23;20062;-80
2022/01/30 12:04:09;;;;;;;35.72;7.95;;;11.20;85.40;;;;;;6154882;23;20028;-80
2022/01/30 12:06:55;;;;;;;43.33;8.32;;;12.00;76.60;;;;;;6152525;23;20030;-79
2022/01/30 12:09:27;;;;;;;28.77;6.43;;;12.80;68.30;;;;;;6155411;23;20048;-77
2022/01/30 12:11:57;;;;;;;31.27;6.65;;;13.50;65.20;;;;;;6156025;23;20026;-80
2022/01/30 12:14:23;;;;;;;28.42;6.35;;;14.20;59.70;;;;;;6156057;23;20025;-79
2022/01/30 12:17:05;;;;;;;36.10;6.93;;;14.40;58.60;;;;;;6159515;23;20073;-80
2022/01/30 12:19:31;;;;;;;37.25;7.13;;;14.60;57.90;;;;;;6157075;23;20021;-79
2022/01/30 12:22:23;;;;;;;26.45;6.35;;;14.80;56.40;;;;;;6134379;23;20022;-79
2022/01/30 12:25:19;;;;;;;31.05;7.38;;;14.70;52.40;;;;;;6159710;23;20022;-78
2022/01/30 12:27:56;;;;;;;35.38;8.45;;;14.90;53.70;;;;;;6158482;23;20080;-80
2022/01/30 12:30:43;;;;;;;32.90;7.43;;;14.70;55.10;;;;;;6155103;23;20060;-80
2022/01/30 12:33:38;;;;;;;31.05;7.32;;;13.50;54.90;;;;;;6154160;23;20137;-80
2022/01/30 12:36:15;;;;;;;38.55;8.23;;;12.50;59.20;;;;;;6104007;23;20027;-80
2022/01/30 12:38:42;;;;;;;35.00;8.13;;;12.00;63.00;;;;;;6149625;23;20088;-79
2022/01/30 12:41:30;;;;;;;44.30;7.57;;;11.70;67.80;;;;;;6105584;23;20030;-80
2022/01/30 12:44:00;;;;;;;44.30;10.25;;;11.30;69.70;;;;;;6152308;23;20083;-80
2022/01/30 12:46:51;;;;;;;44.65;10.00;;;11.10;74.90;;;;;;6129482;23;20029;-79
2022/01/30 12:49:21;;;;;;;35.67;7.80;;;10.40;75.60;;;;;;6153701;23;20022;-80
2022/01/30 12:51:56;;;;;;;40.70;8.07;;;10.50;79.00;;;;;;6154095;23;20481;-80
2022/01/30 12:54:24;;;;;;;23.67;5.35;;;10.60;76.00;;;;;;6154630;23;20025;-81
2022/01/30 12:56:52;;;;;;;29.02;5.70;;;10.90;76.60;;;;;;6154051;23;20044;-81
2022/01/30 12:59:20;;;;;;;39.47;7.55;;;12.00;68.80;;;;;;6130193;23;20322;-77
2022/01/30 13:01:48;;;;;;;28.73;6.00;;;13.00;64.00;;;;;;6105651;23;20017;-79
2022/01/30 13:04:20;;;;;;;26.95;6.85;;;13.50;59.20;;;;;;6154006;23;20473;-79
2022/01/30 13:06:51;;;;;;;32.10;7.18;;;14.00;57.50;;;;;;6129491;23;20022;-80
2022/01/30 13:09:27;;;;;;;32.70;7.55;;;14.70;56.10;;;;;;6107003;23;20029;-79
2022/01/30 13:12:13;;;;;;;33.58;7.25;;;14.90;52.90;;;;;;6107627;23;20403;-79
2022/01/30 13:14:43;;;;;;;29.75;5.65;;;15.10;51.80;;;;;;6130527;23;20028;-79
2022/01/30 13:17:12;;;;;;;30.40;6.05;;;15.00;53.00;;;;;;6129433;23;20021;-80
2022/01/30 13:19:42;;;;;;;36.92;6.57;;;14.90;54.20;;;;;;6106087;23;20017;-80
2022/01/30 13:22:34;;;;;;;36.65;7.82;;;14.30;55.00;;;;;;6155695;23;20026;-80
2022/01/30 13:25:06;;;;;;;30.15;7.13;;;13.80;53.30;;;;;;6152986;23;20029;-80
2022/01/30 13:27:40;;;;;;;34.42;6.43;;;13.40;56.40;;;;;;6130615;23;20017;-80
2022/01/30 13:30:10;;;;;;;35.92;7.75;;;13.10;57.30;;;;;;6154924;23;20025;-79
2022/01/30 13:32:40;;;;;;;30.88;6.65;;;12.50;60.40;;;;;;6154320;23;20084;-80
2022/01/30 13:35:28;;;;;;;31.20;8.13;;;11.80;62.90;;;;;;6130453;23;20021;-80
2022/01/30 13:38:01;;;;;;;36.90;9.50;;;11.30;64.40;;;;;;6129478;23;20346;-78
2022/01/30 13:40:41;;;;;;;31.98;7.25;;;10.80;71.20;;;;;;6155967;23;20084;-80
2022/01/30 13:43:21;;;;;;;33.78;7.20;;;10.50;75.70;;;;;;6157265;23;20018;-81
2022/01/30 13:48:21;;;;;;;46.30;8.93;;;10.00;80.40;;;;;;6154036;23;20104;-79
2022/01/30 13:51:09;;;;;;;36.38;7.13;;;9.90;82.30;;;;;;6104938;23;20044;-79
2022/01/30 13:53:46;;;;;;;46.28;8.25;;;10.00;82.40;;;;;;6152717;23;20029;-79
2022/01/30 13:56:17;;;;;;;41.05;7.80;;;10.00;83.90;;;;;;6155124;23;20350;-81
2022/01/30 13:58:50;;;;;;;39.72;7.75;;;10.10;86.10;;;;;;6129831;23;20100;-79
2022/01/30 14:01:30;;;;;;;40.53;8.50;;;10.30;84.80;;;;;;6153930;23;20050;-80
2022/01/30 14:04:12;;;;;;;39.50;8.68;;;10.60;82.20;;;;;;6061884;23;20457;-80
2022/01/30 14:06:42;;;;;;;38.95;8.65;;;10.70;83.40;;;;;;6081091;23;20030;-77
2022/01/30 14:09:15;;;;;;;50.38;9.13;;;10.50;83.70;;;;;;6152789;23;20018;-80